sensor_id;sensor_type;location;lat;lon;timestamp;pressure;altitude;pressure_sealevel;temperature;humidity
60337;BME280;46978;50.288;28.624;2023-04-02T00:01:37;97717.13;;;7.98;100.00
60337;BME280;46978;50.288;28.624;2023-04-02T00:07:33;97726.62;;;7.97;100.00
60337;BME280;46978;50.288;28.624;2023-04-02T00:08:37;97724.09;;;7.96;100.00
60337;BME280;46978;50.288;28.624;2023-04-02T00:09:39;97718.16;;;7.94;100.00
60337;BME280;46978;50.288;28.624;2023-04-02T00:10:53;97717.23;;;7.95;100.00
60337;BME280;46978;50.288;28.624;2023-04-02T00:11:56;97717.23;;;7.95;100.00
60337;BME280;46978;50.288;28.624;2023-04-02T00:14:11;97718.16;;;7.94;100.00
60337;BME280;46978;50.288;28.624;2023-04-02T00:15:10;97711.28;;;7.93;100.00
60337;BME280;46978;50.288;28.624;2023-04-02T00:16:16;97719.03;;;7.93;100.00
60337;BME280;46978;50.288;28.624;2023-04-02T00:17:21;97714.70;;;7.93;100.00
60337;BME280;46978;50.288;28.624;2023-04-02T00:18:25;97723.37;;;7.92;100.00
60337;BME280;46978;50.288;28.624;2023-04-02T00:19:40;97711.28;;;7.93;100.00
60337;BME280;46978;50.288;28.624;2023-04-02T00:20:45;97717.34;;;7.92;100.00
60337;BME280;46978;50.288;28.624;2023-04-02T00:21:46;97717.34;;;7.92;100.00
60337;BME280;46978;50.288;28.624;2023-04-02T00:22:49;97720.84;;;7.90;100.00
60337;BME280;46978;50.288;28.624;2023-04-02T00:23:53;97720.00;;;7.90;100.00
60337;BME280;46978;50.288;28.624;2023-04-02T00:24:58;97715.73;;;7.89;100.00
60337;BME280;46978;50.288;28.624;2023-04-02T00:26:00;97708.86;;;7.88;100.00
60337;BME280;46978;50.288;28.624;2023-04-02T00:27:02;97718.36;;;7.87;100.00
60337;BME280;46978;50.288;28.624;2023-04-02T00:28:03;97714.08;;;7.86;100.00
60337;BME280;46978;50.288;28.624;2023-04-02T00:29:06;97714.94;;;7.87;100.00
60337;BME280;46978;50.288;28.624;2023-04-02T00:30:11;97714.89;;;7.88;100.00
60337;BME280;46978;50.288;28.624;2023-04-02T00:31:13;97718.36;;;7.87;100.00
60337;BME280;46978;50.288;28.624;2023-04-02T00:32:24;97724.36;;;7.88;100.00
60337;BME280;46978;50.288;28.624;2023-04-02T00:33:26;97724.36;;;7.88;100.00
60337;BME280;46978;50.288;28.624;2023-04-02T00:34:31;97719.19;;;7.88;100.00
60337;BME280;46978;50.288;28.624;2023-04-02T00:35:35;97720.05;;;7.88;100.00
60337;BME280;46978;50.288;28.624;2023-04-02T00:36:39;97722.64;;;7.88;100.00
60337;BME280;46978;50.288;28.624;2023-04-02T00:37:43;97721.77;;;7.88;100.00
60337;BME280;46978;50.288;28.624;2023-04-02T00:38:45;97722.64;;;7.88;100.00
60337;BME280;46978;50.288;28.624;2023-04-02T00:39:47;97732.11;;;7.88;100.00
60337;BME280;46978;50.288;28.624;2023-04-02T00:40:51;97724.41;;;7.86;100.00
60337;BME280;46978;50.288;28.624;2023-04-02T00:41:57;97728.73;;;7.86;100.00
60337;BME280;46978;50.288;28.624;2023-04-02T00:42:59;97732.20;;;7.85;100.00
60337;BME280;46978;50.288;28.624;2023-04-02T00:44:02;97728.01;;;7.82;100.00
60337;BME280;46978;50.288;28.624;2023-04-02T00:45:10;97728.95;;;7.80;100.00
60337;BME280;46978;50.288;28.624;2023-04-02T00:46:13;97732.41;;;7.79;100.00
60337;BME280;46978;50.288;28.624;2023-04-02T00:47:21;97730.80;;;7.76;100.00
60337;BME280;46978;50.288;28.624;2023-04-02T00:49:38;97740.45;;;7.69;100.00
60337;BME280;46978;50.288;28.624;2023-04-02T00:50:42;97737.98;;;7.66;100.00
60337;BME280;46978;50.288;28.624;2023-04-02T00:51:52;97739.82;;;7.63;100.00
60337;BME280;46978;50.288;28.624;2023-04-02T00:52:55;97740.80;;;7.59;100.00
60337;BME280;46978;50.288;28.624;2023-04-02T00:54:03;97739.19;;;7.56;100.00
60337;BME280;46978;50.288;28.624;2023-04-02T00:56:26;97739.33;;;7.51;100.00
60337;BME280;46978;50.288;28.624;2023-04-02T00:57:28;97741.05;;;7.51;100.00
60337;BME280;46978;50.288;28.624;2023-04-02T00:58:34;97734.17;;;7.51;100.00
60337;BME280;46978;50.288;28.624;2023-04-02T00:59:55;97739.38;;;7.50;100.00
60337;BME280;46978;50.288;28.624;2023-04-02T01:00:59;97741.96;;;7.50;100.00
60337;BME280;46978;50.288;28.624;2023-04-02T01:04:29;97738.47;;;7.51;100.00
60337;BME280;46978;50.288;28.624;2023-04-02T01:05:33;97737.64;;;7.50;100.00
60337;BME280;46978;50.288;28.624;2023-04-02T01:06:37;97742.75;;;7.52;100.00
60337;BME280;46978;50.288;28.624;2023-04-02T01:09:11;97739.38;;;7.50;100.00
60337;BME280;46978;50.288;28.624;2023-04-02T01:13:56;97741.25;;;7.45;100.00
60337;BME280;46978;50.288;28.624;2023-04-02T01:15:07;97728.44;;;7.42;100.00
60337;BME280;46978;50.288;28.624;2023-04-02T01:16:49;97734.52;;;7.41;100.00
60337;BME280;46978;50.288;28.624;2023-04-02T01:20:11;97733.10;;;7.30;100.00
60337;BME280;46978;50.288;28.624;2023-04-02T01:21:32;97733.25;;;7.26;100.00
60337;BME280;46978;50.288;28.624;2023-04-02T01:24:55;97740.62;;;7.10;100.00
60337;BME280;46978;50.288;28.624;2023-04-02T01:28:01;97740.98;;;6.97;100.00
60337;BME280;46978;50.288;28.624;2023-04-02T01:29:56;97737.77;;;6.89;100.00
60337;BME280;46978;50.288;28.624;2023-04-02T01:31:00;97737.91;;;6.85;100.00
60337;BME280;46978;50.288;28.624;2023-04-02T01:32:06;97738.95;;;6.79;100.00
60337;BME280;46978;50.288;28.624;2023-04-02T01:33:08;97733.02;;;6.75;100.00
60337;BME280;46978;50.288;28.624;2023-04-02T01:34:17;97737.47;;;6.70;100.00
60337;BME280;46978;50.288;28.624;2023-04-02T01:35:15;97746.98;;;6.68;100.00
60337;BME280;46978;50.288;28.624;2023-04-02T01:38:04;97739.48;;;6.60;100.00
60337;BME280;46978;50.288;28.624;2023-04-02T01:40:46;97738.86;;;6.52;100.00
60337;BME280;46978;50.288;28.624;2023-04-02T01:43:19;97735.63;;;6.44;100.00
60337;BME280;46978;50.288;28.624;2023-04-02T01:44:29;97732.30;;;6.40;100.00
60337;BME280;46978;50.288;28.624;2023-04-02T01:45:30;97742.73;;;6.36;100.00
60337;BME280;46978;50.288;28.624;2023-04-02T01:46:33;97743.65;;;6.33;100.00
60337;BME280;46978;50.288;28.624;2023-04-02T01:47:36;97741.20;;;6.28;100.00
60337;BME280;46978;50.288;28.624;2023-04-02T01:48:39;97742.14;;;6.26;100.00
60337;BME280;46978;50.288;28.624;2023-04-02T01:49:42;97736.21;;;6.22;100.00
60337;BME280;46978;50.288;28.624;2023-04-02T01:50:47;97745.72;;;6.20;100.00
60337;BME280;46978;50.288;28.624;2023-04-02T01:51:53;97739.77;;;6.18;100.00
60337;BME280;46978;50.288;28.624;2023-04-02T01:53:03;97744.09;;;6.16;100.00
60337;BME280;46978;50.288;28.624;2023-04-02T01:54:03;97739.94;;;6.12;100.00
60337;BME280;46978;50.288;28.624;2023-04-02T01:55:10;97741.73;;;6.08;100.00
60337;BME280;46978;50.288;28.624;2023-04-02T01:56:12;97740.14;;;6.04;100.00
60337;BME280;46978;50.288;28.624;2023-04-02T01:57:14;97745.36;;;6.01;100.00
60337;BME280;46978;50.288;28.624;2023-04-02T01:58:19;97740.26;;;6.00;100.00
60337;BME280;46978;50.288;28.624;2023-04-02T01:59:23;97739.43;;;5.98;100.00
60337;BME280;46978;50.288;28.624;2023-04-02T02:00:27;97747.16;;;5.98;100.00
60337;BME280;46978;50.288;28.624;2023-04-02T02:01:35;97744.59;;;5.96;100.00
60337;BME280;46978;50.288;28.624;2023-04-02T02:02:38;97747.16;;;5.96;100.00
60337;BME280;46978;50.288;28.624;2023-04-02T02:03:41;97744.63;;;5.95;100.00
60337;BME280;46978;50.288;28.624;2023-04-02T02:04:43;97743.79;;;5.94;100.00
60337;BME280;46978;50.288;28.624;2023-04-02T02:05:46;97745.53;;;5.93;100.00
60337;BME280;46978;50.288;28.624;2023-04-02T02:06:48;97745.53;;;5.93;100.00
60337;BME280;46978;50.288;28.624;2023-04-02T02:07:51;97743.87;;;5.91;100.00
60337;BME280;46978;50.288;28.624;2023-04-02T02:09:04;97742.17;;;5.90;100.00
60337;BME280;46978;50.288;28.624;2023-04-02T02:10:26;97746.52;;;5.88;100.00
60337;BME280;46978;50.288;28.624;2023-04-02T02:11:30;97745.72;;;5.86;100.00
60337;BME280;46978;50.288;28.624;2023-04-02T02:12:32;97743.30;;;5.80;100.00
60337;BME280;46978;50.288;28.624;2023-04-02T02:13:34;97750.20;;;5.78;100.00
60337;BME280;46978;50.288;28.624;2023-04-02T02:14:36;97743.45;;;5.73;100.00
60337;BME280;46978;50.288;28.624;2023-04-02T02:15:38;97742.66;;;5.70;100.00
60337;BME280;46978;50.288;28.624;2023-04-02T02:16:40;97747.02;;;5.68;100.00
60337;BME280;46978;50.288;28.624;2023-04-02T02:17:42;97754.77;;;5.66;100.00
60337;BME280;46978;50.288;28.624;2023-04-02T02:18:52;97755.69;;;5.64;100.00
60337;BME280;46978;50.288;28.624;2023-04-02T02:19:56;97754.84;;;5.63;100.00
60337;BME280;46978;50.288;28.624;2023-04-02T02:21:38;97754.88;;;5.62;100.00
60337;BME280;46978;50.288;28.624;2023-04-02T02:22:48;97754.84;;;5.63;100.00
60337;BME280;46978;50.288;28.624;2023-04-02T02:23:51;97749.66;;;5.65;100.00
60337;BME280;46978;50.288;28.624;2023-04-02T02:24:55;97754.81;;;5.65;100.00
60337;BME280;46978;50.288;28.624;2023-04-02T02:25:58;97753.11;;;5.64;100.00
60337;BME280;46978;50.288;28.624;2023-04-02T02:27:08;97747.92;;;5.65;100.00
60337;BME280;46978;50.288;28.624;2023-04-02T02:29:20;97752.16;;;5.68;100.00
60337;BME280;46978;50.288;28.624;2023-04-02T02:30:40;97746.98;;;5.69;100.00
60337;BME280;46978;50.288;28.624;2023-04-02T02:31:42;97749.52;;;5.71;100.00
60337;BME280;46978;50.288;28.624;2023-04-02T02:34:23;97748.60;;;5.73;100.00
60337;BME280;46978;50.288;28.624;2023-04-02T02:35:31;97745.95;;;5.77;100.00
60337;BME280;46978;50.288;28.624;2023-04-02T02:36:42;97754.51;;;5.77;100.00
60337;BME280;46978;50.288;28.624;2023-04-02T02:37:44;97757.84;;;5.81;100.00
60337;BME280;46978;50.288;28.624;2023-04-02T02:39:06;97759.55;;;5.82;100.00
60337;BME280;46978;50.288;28.624;2023-04-02T02:40:08;97759.55;;;5.82;100.00
60337;BME280;46978;50.288;28.624;2023-04-02T02:42:32;97763.81;;;5.83;100.00
60337;BME280;46978;50.288;28.624;2023-04-02T02:43:36;97761.17;;;5.86;100.00
60337;BME280;46978;50.288;28.624;2023-04-02T02:44:43;97765.38;;;5.88;100.00
60337;BME280;46978;50.288;28.624;2023-04-02T02:45:47;97762.72;;;5.91;100.00
60337;BME280;46978;50.288;28.624;2023-04-02T02:48:04;97759.20;;;5.96;100.00
60337;BME280;46978;50.288;28.624;2023-04-02T02:49:09;97768.66;;;5.97;100.00
60337;BME280;46978;50.288;28.624;2023-04-02T02:50:18;97768.54;;;6.01;100.00
60337;BME280;46978;50.288;28.624;2023-04-02T02:51:24;97771.88;;;6.05;100.00
60337;BME280;46978;50.288;28.624;2023-04-02T02:52:29;97775.20;;;6.08;100.00
60337;BME280;46978;50.288;28.624;2023-04-02T02:53:31;97769.97;;;6.12;100.00
60337;BME280;46978;50.288;28.624;2023-04-02T02:54:35;97776.83;;;6.13;100.00
60337;BME280;46978;50.288;28.624;2023-04-02T02:55:38;97781.89;;;6.16;100.00
60337;BME280;46978;50.288;28.624;2023-04-02T02:56:45;97776.67;;;6.19;100.00
60337;BME280;46978;50.288;28.624;2023-04-02T02:58:00;97777.46;;;6.21;100.00
60337;BME280;46978;50.288;28.624;2023-04-02T02:58:58;97777.38;;;6.24;100.00
60337;BME280;46978;50.288;28.624;2023-04-02T03:00:01;97772.23;;;6.24;100.00
60337;BME280;46978;50.288;28.624;2023-04-02T03:01:03;97782.45;;;6.27;100.00
60337;BME280;46978;50.288;28.624;2023-04-02T03:02:05;97786.69;;;6.30;100.00
60337;BME280;46978;50.288;28.624;2023-04-02T03:03:10;97791.77;;;6.33;100.00
60337;BME280;46978;50.288;28.624;2023-04-02T03:04:17;97778.84;;;6.34;100.00
60337;BME280;46978;50.288;28.624;2023-04-02T03:05:23;97787.36;;;6.36;100.00
60337;BME280;46978;50.288;28.624;2023-04-02T03:06:25;97783.08;;;6.37;100.00
60337;BME280;46978;50.288;28.624;2023-04-02T03:07:28;97790.72;;;6.40;100.00
60337;BME280;46978;50.288;28.624;2023-04-02T03:08:49;97782.95;;;6.41;100.00
60337;BME280;46978;50.288;28.624;2023-04-02T03:11:52;97790.64;;;6.43;100.00
60337;BME280;46978;50.288;28.624;2023-04-02T03:13:01;97788.81;;;6.46;100.00
60337;BME280;46978;50.288;28.624;2023-04-02T03:14:21;97798.25;;;6.48;100.00
60337;BME280;46978;50.288;28.624;2023-04-02T03:16:41;97788.77;;;6.48;100.00
60337;BME280;46978;50.288;28.624;2023-04-02T03:22:51;97786.87;;;6.55;100.00
60337;BME280;46978;50.288;28.624;2023-04-02T03:24:08;97795.42;;;6.57;100.00
60337;BME280;46978;50.288;28.624;2023-04-02T03:27:42;97792.84;;;6.57;100.00
60337;BME280;46978;50.288;28.624;2023-04-02T03:28:52;97788.52;;;6.57;100.00
60337;BME280;46978;50.288;28.624;2023-04-02T03:31:26;97795.42;;;6.57;100.00
60337;BME280;46978;50.288;28.624;2023-04-02T03:32:31;97793.72;;;6.56;100.00
60337;BME280;46978;50.288;28.624;2023-04-02T03:33:39;97792.84;;;6.57;100.00
60337;BME280;46978;50.288;28.624;2023-04-02T03:34:53;97794.55;;;6.56;100.00
60337;BME280;46978;50.288;28.624;2023-04-02T03:37:33;97799.05;;;6.50;100.00
60337;BME280;46978;50.288;28.624;2023-04-02T03:38:43;97793.05;;;6.49;100.00
60337;BME280;46978;50.288;28.624;2023-04-02T03:39:50;97799.05;;;6.50;100.00
60337;BME280;46978;50.288;28.624;2023-04-02T03:42:12;97795.59;;;6.51;100.00
60337;BME280;46978;50.288;28.624;2023-04-02T03:43:19;97805.94;;;6.49;100.00
60337;BME280;46978;50.288;28.624;2023-04-02T03:45:38;97803.36;;;6.49;100.00
60337;BME280;46978;50.288;28.624;2023-04-02T03:46:44;97805.94;;;6.49;100.00
60337;BME280;46978;50.288;28.624;2023-04-02T03:47:54;97807.61;;;6.50;100.00
60337;BME280;46978;50.288;28.624;2023-04-02T03:49:05;97799.83;;;6.52;100.00
60337;BME280;46978;50.288;28.624;2023-04-02T03:50:17;97806.73;;;6.51;100.00
60337;BME280;46978;50.288;28.624;2023-04-02T03:51:31;97805.86;;;6.52;100.00
60337;BME280;46978;50.288;28.624;2023-04-02T03:52:35;97800.70;;;6.52;100.00
60337;BME280;46978;50.288;28.624;2023-04-02T03:53:38;97810.10;;;6.53;100.00
60337;BME280;46978;50.288;28.624;2023-04-02T03:54:40;97811.05;;;6.51;100.00
60337;BME280;46978;50.288;28.624;2023-04-02T03:55:42;97802.45;;;6.50;100.00
60337;BME280;46978;50.288;28.624;2023-04-02T03:56:45;97809.31;;;6.51;100.00
60337;BME280;46978;50.288;28.624;2023-04-02T03:58:13;97815.34;;;6.50;100.00
60337;BME280;46978;50.288;28.624;2023-04-02T04:01:42;97821.40;;;6.49;100.00
60337;BME280;46978;50.288;28.624;2023-04-02T04:02:48;97820.53;;;6.49;100.00
60337;BME280;46978;50.288;28.624;2023-04-02T04:03:55;97821.44;;;6.48;100.00
60337;BME280;46978;50.288;28.624;2023-04-02T04:04:59;97824.09;;;6.44;100.00
60337;BME280;46978;50.288;28.624;2023-04-02T04:06:09;97818.08;;;6.44;100.00
60337;BME280;46978;50.288;28.624;2023-04-02T04:07:27;97819.78;;;6.45;100.00
60337;BME280;46978;50.288;28.624;2023-04-02T04:08:24;97824.05;;;6.46;100.00
60337;BME280;46978;50.288;28.624;2023-04-02T04:09:35;97822.27;;;6.48;100.00
60337;BME280;46978;50.288;28.624;2023-04-02T04:10:39;97819.73;;;6.46;100.00
60337;BME280;46978;50.288;28.624;2023-04-02T04:11:48;97816.37;;;6.44;100.00
60337;BME280;46978;50.288;28.624;2023-04-02T04:12:53;97822.35;;;6.45;100.00
60337;BME280;46978;50.288;28.624;2023-04-02T04:15:13;97824.02;;;6.48;100.00
60337;BME280;46978;50.288;28.624;2023-04-02T04:16:19;97828.26;;;6.49;100.00
60337;BME280;46978;50.288;28.624;2023-04-02T04:17:51;97829.05;;;6.52;100.00
60337;BME280;46978;50.288;28.624;2023-04-02T04:19:03;97829.80;;;6.56;100.00
60337;BME280;46978;50.288;28.624;2023-04-02T04:20:12;97830.63;;;6.56;100.00
60337;BME280;46978;50.288;28.624;2023-04-02T04:21:20;97828.88;;;6.58;100.00
60337;BME280;46978;50.288;28.624;2023-04-02T04:22:25;97833.09;;;6.61;100.00
60337;BME280;46978;50.288;28.624;2023-04-02T04:23:33;97822.78;;;6.61;100.00
60337;BME280;46978;50.288;28.624;2023-04-02T04:24:36;97827.02;;;6.63;100.00
60337;BME280;46978;50.288;28.624;2023-04-02T04:25:38;97828.64;;;6.66;100.00
60337;BME280;46978;50.288;28.624;2023-04-02T04:29:16;97832.09;;;6.67;100.00
60337;BME280;46978;50.288;28.624;2023-04-02T04:30:23;97835.42;;;6.70;100.00
60337;BME280;46978;50.288;28.624;2023-04-02T04:31:46;97831.06;;;6.72;100.00
60337;BME280;46978;50.288;28.624;2023-04-02T04:32:53;97835.30;;;6.75;100.00
60337;BME280;46978;50.288;28.624;2023-04-02T04:33:57;97836.09;;;6.77;100.00
60337;BME280;46978;50.288;28.624;2023-04-02T04:35:16;97836.05;;;6.78;100.00
60337;BME280;46978;50.288;28.624;2023-04-02T04:36:27;97832.59;;;6.79;100.00
60337;BME280;46978;50.288;28.624;2023-04-02T04:37:35;97835.96;;;6.81;100.00
60337;BME280;46978;50.288;28.624;2023-04-02T04:38:39;97840.99;;;6.86;100.00
60337;BME280;46978;50.288;28.624;2023-04-02T04:39:53;97839.23;;;6.88;100.00
60337;BME280;46978;50.288;28.624;2023-04-02T04:41:20;97834.03;;;6.90;100.00
60337;BME280;46978;50.288;28.624;2023-04-02T04:42:03;97845.09;;;6.93;100.00
60337;BME280;46978;50.288;28.624;2023-04-02T04:43:11;97839.90;;;6.95;100.00
60337;BME280;46978;50.288;28.624;2023-04-02T04:45:42;97847.51;;;6.99;100.00
60337;BME280;46978;50.288;28.624;2023-04-02T04:46:47;97839.69;;;7.03;100.00
60337;BME280;46978;50.288;28.624;2023-04-02T04:48:04;97840.48;;;7.05;100.00
60337;BME280;46978;50.288;28.624;2023-04-02T04:49:13;97836.98;;;7.07;100.00
60337;BME280;46978;50.288;28.624;2023-04-02T04:51:55;97845.41;;;7.12;100.00
60337;BME280;46978;50.288;28.624;2023-04-02T04:53:03;97840.22;;;7.14;100.00
60337;BME280;46978;50.288;28.624;2023-04-02T04:54:01;97844.41;;;7.18;100.00
60337;BME280;46978;50.288;28.624;2023-04-02T04:55:23;97842.62;;;7.20;100.00
60337;BME280;46978;50.288;28.624;2023-04-02T04:56:27;97845.16;;;7.22;100.00
60337;BME280;46978;50.288;28.624;2023-04-02T04:57:34;97839.11;;;7.23;100.00
60337;BME280;46978;50.288;28.624;2023-04-02T05:01:24;97850.00;;;7.32;100.00
60337;BME280;46978;50.288;28.624;2023-04-02T05:02:32;97849.03;;;7.36;100.00
60337;BME280;46978;50.288;28.624;2023-04-02T05:03:41;97847.15;;;7.42;100.00
60337;BME280;46978;50.288;28.624;2023-04-02T05:04:47;97851.37;;;7.44;100.00
60337;BME280;46978;50.288;28.624;2023-04-02T05:05:48;97853.88;;;7.47;100.00
60337;BME280;46978;50.288;28.624;2023-04-02T05:08:25;97854.70;;;7.48;100.00
60337;BME280;46978;50.288;28.624;2023-04-02T05:10:41;97859.87;;;7.48;100.00
60337;BME280;46978;50.288;28.624;2023-04-02T05:12:00;97865.08;;;7.46;100.00
60337;BME280;46978;50.288;28.624;2023-04-02T05:13:20;97861.66;;;7.46;100.00
60337;BME280;46978;50.288;28.624;2023-04-02T05:14:28;97858.94;;;7.50;100.00
60337;BME280;46978;50.288;28.624;2023-04-02T05:15:37;97865.76;;;7.53;100.00
60337;BME280;46978;50.288;28.624;2023-04-02T05:16:50;97869.96;;;7.56;100.00
60337;BME280;46978;50.288;28.624;2023-04-02T05:18:23;97868.94;;;7.61;100.00
60337;BME280;46978;50.288;28.624;2023-04-02T05:19:40;97869.83;;;7.60;100.00
60337;BME280;46978;50.288;28.624;2023-04-02T05:23:24;97869.96;;;7.56;100.00
60337;BME280;46978;50.288;28.624;2023-04-02T05:24:42;97870.73;;;7.59;100.00
60337;BME280;46978;50.288;28.624;2023-04-02T05:26:02;97871.48;;;7.63;100.00
60337;BME280;46978;50.288;28.624;2023-04-02T05:27:12;97868.76;;;7.67;100.00
60337;BME280;46978;50.288;28.624;2023-04-02T05:28:18;97874.61;;;7.72;100.00
60337;BME280;46978;50.288;28.624;2023-04-02T05:29:30;97871.11;;;7.75;100.00
60337;BME280;46978;50.288;28.624;2023-04-02T05:30:45;97877.92;;;7.78;100.00
60337;BME280;46978;50.288;28.624;2023-04-02T05:31:46;97865.80;;;7.80;100.00
60337;BME280;46978;50.288;28.624;2023-04-02T05:34:31;97877.73;;;7.84;100.00
60337;BME280;46978;50.288;28.624;2023-04-02T05:35:36;97870.67;;;7.89;100.00
60337;BME280;46978;50.288;28.624;2023-04-02T05:36:39;97874.96;;;7.90;100.00
60337;BME280;46978;50.288;28.624;2023-04-02T05:37:41;97874.00;;;7.93;100.00
60337;BME280;46978;50.288;28.624;2023-04-02T05:38:44;97872.97;;;7.98;100.00
60337;BME280;46978;50.288;28.624;2023-04-02T05:39:53;97874.45;;;8.05;100.00
60337;BME280;46978;50.288;28.624;2023-04-02T05:41:07;97879.42;;;8.12;100.00
60337;BME280;46978;50.288;28.624;2023-04-02T05:42:16;97879.17;;;8.19;100.00
60337;BME280;46978;50.288;28.624;2023-04-02T05:43:19;97874.72;;;8.24;100.00
60337;BME280;46978;50.288;28.624;2023-04-02T05:44:25;97878.82;;;8.30;100.00
60337;BME280;46978;50.288;28.624;2023-04-02T05:45:38;97877.88;;;8.33;100.00
60337;BME280;46978;50.288;28.624;2023-04-02T05:46:45;97882.91;;;8.37;100.00
60337;BME280;46978;50.288;28.624;2023-04-02T05:47:49;97878.40;;;8.44;100.00
60337;BME280;46978;50.288;28.624;2023-04-02T05:48:54;97877.36;;;8.50;100.00
60337;BME280;46978;50.288;28.624;2023-04-02T05:51:15;97876.78;;;8.67;100.00
60337;BME280;46978;50.288;28.624;2023-04-02T05:52:26;97875.73;;;8.72;100.00
60337;BME280;46978;50.288;28.624;2023-04-02T05:53:39;97878.22;;;8.75;100.00
60337;BME280;46978;50.288;28.624;2023-04-02T05:54:51;97869.33;;;8.83;100.00
60337;BME280;46978;50.288;28.624;2023-04-02T05:57:21;97877.36;;;9.00;100.00
60337;BME280;46978;50.288;28.624;2023-04-02T05:59:39;97875.22;;;9.11;100.00
60337;BME280;46978;50.288;28.624;2023-04-02T06:00:51;97875.83;;;9.18;100.00
60337;BME280;46978;50.288;28.624;2023-04-02T06:01:55;97867.84;;;9.24;100.00
60337;BME280;46978;50.288;28.624;2023-04-02T06:03:00;97873.63;;;9.31;100.00
60337;BME280;46978;50.288;28.624;2023-04-02T06:04:32;97874.37;;;9.35;100.00
60337;BME280;46978;50.288;28.624;2023-04-02T06:05:36;97875.16;;;9.37;100.00
60337;BME280;46978;50.288;28.624;2023-04-02T06:06:45;97877.57;;;9.41;100.00
60337;BME280;46978;50.288;28.624;2023-04-02T06:07:51;97872.22;;;9.46;100.00
60337;BME280;46978;50.288;28.624;2023-04-02T06:08:59;97877.23;;;9.50;100.00
60337;BME280;46978;50.288;28.624;2023-04-02T06:10:10;97880.47;;;9.56;100.00
60337;BME280;46978;50.288;28.624;2023-04-02T06:11:19;97885.42;;;9.62;100.00
60337;BME280;46978;50.288;28.624;2023-04-02T06:12:27;97882.54;;;9.69;100.00
60337;BME280;46978;50.288;28.624;2023-04-02T06:13:26;97886.65;;;9.75;100.00
60337;BME280;46978;50.288;28.624;2023-04-02T06:14:29;97879.66;;;9.77;100.00
60337;BME280;46978;50.288;28.624;2023-04-02T06:15:32;97883.11;;;9.78;100.00
60337;BME280;46978;50.288;28.624;2023-04-02T06:16:34;97886.59;;;9.77;100.00
60337;BME280;46978;50.288;28.624;2023-04-02T06:17:48;97890.88;;;9.78;100.00
60337;BME280;46978;50.288;28.624;2023-04-02T06:18:50;97889.00;;;9.81;100.00
60337;BME280;46978;50.288;28.624;2023-04-02T06:19:53;97897.43;;;9.86;100.00
60337;BME280;46978;50.288;28.624;2023-04-02T06:20:57;97891.89;;;9.96;100.00
60337;BME280;46978;50.288;28.624;2023-04-02T06:22:07;97891.89;;;9.96;100.00
60337;BME280;46978;50.288;28.624;2023-04-02T06:23:30;97896.83;;;10.02;100.00
60337;BME280;46978;50.288;28.624;2023-04-02T06:24:27;97897.58;;;10.05;100.00
60337;BME280;46978;50.288;28.624;2023-04-02T06:25:46;97893.81;;;10.13;99.85
60337;BME280;46978;50.288;28.624;2023-04-02T06:26:58;97897.92;;;10.18;99.48
60337;BME280;46978;50.288;28.624;2023-04-02T06:28:03;97901.09;;;10.25;98.60
60337;BME280;46978;50.288;28.624;2023-04-02T06:30:23;97894.55;;;10.38;98.46
60337;BME280;46978;50.288;28.624;2023-04-02T06:32:49;97901.58;;;10.57;97.98
60337;BME280;46978;50.288;28.624;2023-04-02T06:33:51;97901.89;;;10.70;97.77
60337;BME280;46978;50.288;28.624;2023-04-02T06:34:53;97908.45;;;10.79;96.68
60337;BME280;46978;50.288;28.624;2023-04-02T06:35:55;97901.31;;;10.84;96.33
60337;BME280;46978;50.288;28.624;2023-04-02T06:37:00;97899.41;;;10.87;95.37
60337;BME280;46978;50.288;28.624;2023-04-02T06:38:04;97900.15;;;10.91;95.75
60337;BME280;46978;50.288;28.624;2023-04-02T06:39:10;97899.02;;;10.97;95.68
60337;BME280;46978;50.288;28.624;2023-04-02T06:41:30;97913.13;;;10.91;94.56
60337;BME280;46978;50.288;28.624;2023-04-02T06:42:37;97904.34;;;10.93;95.81
60337;BME280;46978;50.288;28.624;2023-04-02T06:44:02;97899.08;;;10.95;94.87
60337;BME280;46978;50.288;28.624;2023-04-02T06:45:06;97905.01;;;10.99;94.29
60337;BME280;46978;50.288;28.624;2023-04-02T06:46:17;97904.81;;;11.03;94.24
60337;BME280;46978;50.288;28.624;2023-04-02T06:48:32;97909.80;;;11.08;93.59
60337;BME280;46978;50.288;28.624;2023-04-02T06:49:38;97907.20;;;11.08;92.90
60337;BME280;46978;50.288;28.624;2023-04-02T06:50:56;97915.83;;;11.08;93.14
60337;BME280;46978;50.288;28.624;2023-04-02T06:52:00;97908.94;;;11.07;92.50
60337;BME280;46978;50.288;28.624;2023-04-02T06:53:04;97910.56;;;11.10;92.58
60337;BME280;46978;50.288;28.624;2023-04-02T06:54:16;97911.33;;;11.12;92.46
60337;BME280;46978;50.288;28.624;2023-04-02T06:55:30;97918.98;;;11.15;92.00
60337;BME280;46978;50.288;28.624;2023-04-02T06:56:40;97906.80;;;11.17;92.16
60337;BME280;46978;50.288;28.624;2023-04-02T06:57:40;97916.19;;;11.20;90.66
60337;BME280;46978;50.288;28.624;2023-04-02T06:58:42;97905.73;;;11.21;91.61
60337;BME280;46978;50.288;28.624;2023-04-02T06:59:44;97911.73;;;11.23;90.36
60337;BME280;46978;50.288;28.624;2023-04-02T07:00:48;97905.53;;;11.26;90.76
60337;BME280;46978;50.288;28.624;2023-04-02T07:03:16;97923.02;;;11.22;90.28
60337;BME280;46978;50.288;28.624;2023-04-02T07:04:19;97915.29;;;11.21;90.48
60337;BME280;46978;50.288;28.624;2023-04-02T07:05:21;97919.13;;;11.12;90.31
60337;BME280;46978;50.288;28.624;2023-04-02T07:06:23;97917.66;;;11.06;89.76
60337;BME280;46978;50.288;28.624;2023-04-02T07:07:25;97923.81;;;11.04;89.90
60337;BME280;46978;50.288;28.624;2023-04-02T07:08:27;97921.98;;;11.06;90.75
60337;BME280;46978;50.288;28.624;2023-04-02T07:09:28;97921.91;;;11.07;90.15
60337;BME280;46978;50.288;28.624;2023-04-02T07:10:30;97920.12;;;11.09;90.01